CST,Max TemperatureF,Mean TemperatureF,Min TemperatureF,Max Dew PointF,MeanDew PointF,Min DewpointF,Max Humidity, Mean Humidity, Min Humidity, Max Sea Level PressureIn, Mean Sea Level PressureIn, Min Sea Level PressureIn, Max VisibilityMiles, Mean VisibilityMiles, Min VisibilityMiles, Max Wind SpeedMPH, Mean Wind SpeedMPH, Max Gust SpeedMPH,PrecipitationIn, CloudCover, Events, WindDirDegrees
2012-1-1,45,34,24,19,13,10,61,39,26,30.68,30.59,30.38,10,10,10,18,7,22,0.00,0,,45
2012-1-2,50,32,13,15,11,8,79,49,25,30.75,30.65,30.60,10,10,10,12,4,,0.00,0,,264
2012-1-3,59,44,30,28,20,10,48,37,28,30.57,30.44,30.31,10,10,10,22,11,26,0.00,0,,220
2012-1-4,50,40,30,27,19,15,55,39,28,30.49,30.39,30.28,10,10,10,24,10,30,0.00,0,,348
2012-1-5,55,38,21,18,12,5,75,42,13,30.47,30.36,30.22,10,10,10,14,5,16,0.00,0,,220
2012-1-6,62,48,35,14,9,-1,36,24,8,30.18,30.09,30.01,10,10,10,28,13,38,0.00,0,,215
2012-1-7,57,40,22,26,16,5,80,43,16,30.23,30.16,30.07,10,10,10,13,4,,0.00,0,,202
2012-1-8,54,44,34,22,15,11,55,29,19,30.10,30.04,29.99,10,10,5,15,7,20,0.00,0,,325
2012-1-9,35,31,27,33,28,25,99,95,88,30.29,30.22,30.15,10,8,2,15,11,21,0.12,8,,24
2012-1-10,50,38,25,26,24,20,91,64,30,30.24,30.17,30.09,10,10,10,20,8,23,0.00,0,,251
2012-1-11,60,47,34,27,19,14,65,35,17,30.10,30.01,29.94,10,10,10,28,17,36,0.00,0,,249
2012-1-12,32,26,20,27,19,15,89,76,58,30.37,30.27,30.17,10,10,10,18,12,24,0.00,5,,44
2012-1-13,47,36,25,19,13,2,63,41,25,30.30,30.24,30.17,10,10,7,13,4,,0.00,0,,210
2012-1-14,55,39,23,15,6,-9,66,33,7,30.42,30.36,30.32,10,10,10,14,8,16,0.00,0,,221
2012-1-15,64,48,32,28,18,1,47,29,23,30.34,30.26,30.19,10,10,10,22,9,32,0.00,0,,238
2012-1-16,64,54,45,29,26,24,47,34,23,30.21,30.13,30.06,10,10,10,33,12,45,0.00,0,,230
2012-1-17,62,50,37,29,23,14,59,35,15,30.32,30.24,30.12,10,10,10,26,13,34,0.00,0,,260
2012-1-18,64,45,26,26,17,0,76,39,8,30.36,30.27,30.19,10,10,10,22,8,30,0.00,0,,224
2012-1-19,67,56,45,20,12,8,31,20,11,30.19,30.13,30.04,10,10,10,28,15,33,0.00,0,,223
2012-1-20,68,56,43,9,7,5,24,15,9,30.11,30.05,30.00,10,10,10,25,12,33,0.00,0,,244
2012-1-21,65,48,30,6,1,-4,29,14,8,30.17,30.09,29.96,10,10,10,18,8,24,0.00,0,,222
2012-1-22,59,54,46,7,2,-3,17,12,9,30.12,29.98,29.85,10,10,7,51,20,61,0.00,0,,251
2012-1-23,64,44,23,5,2,-1,39,18,8,30.19,30.11,30.02,10,10,10,15,7,20,0.00,0,,233
2012-1-24,60,46,32,30,8,1,53,21,12,30.03,29.92,29.83,10,10,5,21,10,25,0.00,1,,232
2012-1-25,38,32,27,31,28,24,99,86,57,30.18,30.11,30.00,10,9,1,21,7,25,0.08,5,Thunderstorm,349
2012-1-26,52,41,30,29,24,19,83,53,27,30.28,30.20,30.13,10,10,10,16,7,25,0.00,0,,243
2012-1-27,64,52,41,20,17,10,41,27,12,30.16,30.10,30.06,10,10,10,20,10,25,0.00,0,,245
2012-1-28,42,34,27,27,22,18,81,60,39,30.51,30.42,30.30,10,10,10,18,11,23,0.00,1,,37
2012-1-29,56,40,23,31,23,17,77,54,30,30.45,30.38,30.29,10,10,7,14,8,,0.00,0,,224
2012-1-30,60,47,34,32,28,24,72,52,30,30.32,30.21,30.12,10,10,10,21,9,25,0.00,0,,225
2012-1-31,64,52,40,38,31,16,79,50,22,30.22,30.17,30.12,10,10,10,17,7,21,0.00,0,,229